createdAt,value
2017-12-27T00:01:57.226Z,91.29
2017-12-27T00:04:30.471Z,90.89
2017-12-27T00:10:04.649Z,91.08
2017-12-27T00:15:39.906Z,90.96
2017-12-27T00:18:13.198Z,90.73
2017-12-27T00:20:46.298Z,90.75
2017-12-27T00:23:19.542Z,90.45
2017-12-27T00:25:52.803Z,90.90
2017-12-27T00:28:25.998Z,90.46
2017-12-27T00:30:53.893Z,91.13
2017-12-27T00:33:21.474Z,91.09
2017-12-27T00:35:49.039Z,91.32
2017-12-27T00:38:16.618Z,91.98
2017-12-27T00:40:44.190Z,91.48
2017-12-27T00:43:11.767Z,91.05
2017-12-27T00:45:39.367Z,91.59
2017-12-27T00:48:06.961Z,91.93
2017-12-27T00:50:34.562Z,91.88
2017-12-27T00:53:02.144Z,91.99
2017-12-27T00:55:29.710Z,91.58
2017-12-27T00:57:57.313Z,92.09
2017-12-27T01:00:24.914Z,92.37
2017-12-27T01:02:53.409Z,92.20
2017-12-27T01:05:20.978Z,91.79
2017-12-27T01:07:48.578Z,91.61
2017-12-27T01:10:16.143Z,91.69
2017-12-27T01:12:43.758Z,91.71
2017-12-27T01:15:11.333Z,91.62
2017-12-27T01:17:38.899Z,91.92
2017-12-27T01:20:06.494Z,92.07
2017-12-27T01:22:34.062Z,92.04
2017-12-27T01:25:01.666Z,92.33
2017-12-27T01:27:29.318Z,92.48
2017-12-27T01:29:56.883Z,92.60
2017-12-27T01:32:24.495Z,93.32
2017-12-27T01:34:52.064Z,92.83
2017-12-27T01:37:19.626Z,93.01
2017-12-27T01:39:47.232Z,92.61
2017-12-27T01:42:24.868Z,92.83
2017-12-27T01:44:52.478Z,93.08
2017-12-27T01:47:20.043Z,93.33
2017-12-27T01:49:47.619Z,93.20
2017-12-27T01:52:15.187Z,93.23
2017-12-27T01:54:42.756Z,93.27
2017-12-27T01:57:10.366Z,92.98
2017-12-27T01:59:37.978Z,92.94
2017-12-27T02:02:05.539Z,92.47
2017-12-27T02:04:34.151Z,92.86
2017-12-27T02:07:01.714Z,93.28
2017-12-27T02:09:29.279Z,93.44
2017-12-27T02:11:56.852Z,93.45
2017-12-27T02:14:24.415Z,93.37
2017-12-27T02:16:51.986Z,93.66
2017-12-27T02:19:19.564Z,93.37
2017-12-27T02:21:47.130Z,93.74
2017-12-27T02:24:15.300Z,93.60
2017-12-27T02:26:42.907Z,93.78
2017-12-27T02:29:10.467Z,93.65
2017-12-27T02:31:38.034Z,93.83
2017-12-27T02:34:05.594Z,93.89
2017-12-27T02:36:33.213Z,94.22
2017-12-27T02:39:00.782Z,94.39
2017-12-27T02:41:28.346Z,94.74
2017-12-27T02:43:55.911Z,94.75
2017-12-27T02:46:23.477Z,94.89
2017-12-27T02:48:51.050Z,94.81
2017-12-27T02:51:18.615Z,94.71
2017-12-27T02:53:46.189Z,94.76
2017-12-27T02:56:13.753Z,95.31
2017-12-27T02:58:41.315Z,95.22
2017-12-27T03:01:08.870Z,95.79
2017-12-27T03:03:36.429Z,95.75
2017-12-27T03:06:04.082Z,95.34
2017-12-27T03:08:31.668Z,95.79
2017-12-27T03:10:59.232Z,95.53
2017-12-27T03:13:26.843Z,95.67
2017-12-27T03:15:54.415Z,95.21
2017-12-27T03:18:21.980Z,94.96
2017-12-27T03:20:49.549Z,95.23
2017-12-27T03:23:17.113Z,95.62
2017-12-27T03:25:44.678Z,95.29
2017-12-27T03:28:12.238Z,94.81
2017-12-27T03:30:39.839Z,95.24
2017-12-27T03:33:07.401Z,95.29
2017-12-27T03:35:35.017Z,95.63
2017-12-27T03:38:02.577Z,95.56
2017-12-27T03:40:30.138Z,95.23
2017-12-27T03:42:57.699Z,95.66
2017-12-27T03:45:25.257Z,96.12
2017-12-27T03:47:52.817Z,95.86
2017-12-27T03:50:20.378Z,95.21
2017-12-27T03:52:47.942Z,95.60
2017-12-27T03:55:15.502Z,95.11
2017-12-27T03:57:43.069Z,94.89
2017-12-27T04:00:10.625Z,95.25
2017-12-27T04:02:38.188Z,95.09
2017-12-27T04:05:06.659Z,95.23
2017-12-27T04:07:35.081Z,95.13
2017-12-27T04:10:03.543Z,95.03
2017-12-27T04:12:31.105Z,95.50
2017-12-27T04:14:59.642Z,95.00
2017-12-27T04:17:27.206Z,94.45
2017-12-27T04:19:55.686Z,94.14
2017-12-27T04:22:23.245Z,94.26
2017-12-27T04:24:51.840Z,93.92
2017-12-27T04:27:19.400Z,94.05
2017-12-27T04:29:46.973Z,94.10
2017-12-27T04:32:15.348Z,94.21
2017-12-27T04:34:42.909Z,94.79
2017-12-27T04:37:10.471Z,94.88
2017-12-27T04:39:38.072Z,95.22
2017-12-27T04:42:11.467Z,94.90
2017-12-27T04:44:39.034Z,95.81
2017-12-27T04:47:07.377Z,95.90
2017-12-27T04:49:34.976Z,95.58
2017-12-27T04:52:02.539Z,94.97
2017-12-27T04:54:30.108Z,96.16
2017-12-27T04:56:57.671Z,95.41
2017-12-27T04:59:25.235Z,95.24
2017-12-27T05:01:52.803Z,95.83
2017-12-27T05:04:20.370Z,95.59
2017-12-27T05:06:47.973Z,95.61
2017-12-27T05:09:15.544Z,95.38
2017-12-27T05:11:43.117Z,95.75
2017-12-27T05:14:10.685Z,95.58
2017-12-27T05:16:38.267Z,95.40
2017-12-27T05:19:05.846Z,95.48
2017-12-27T05:21:33.462Z,95.51
2017-12-27T05:24:01.026Z,95.11
2017-12-27T05:26:28.592Z,94.99
2017-12-27T05:28:56.944Z,95.69
2017-12-27T05:31:25.206Z,95.56
2017-12-27T05:33:52.770Z,95.18
2017-12-27T05:36:20.337Z,95.30
2017-12-27T05:38:48.690Z,95.30
2017-12-27T05:41:16.262Z,95.28
2017-12-27T05:43:43.822Z,95.65
2017-12-27T05:46:11.403Z,95.06
2017-12-27T05:48:38.979Z,95.06
2017-12-27T05:51:06.550Z,95.24
2017-12-27T05:53:34.122Z,95.13
2017-12-27T05:56:01.695Z,94.90
2017-12-27T05:58:29.304Z,95.18
2017-12-27T06:00:56.878Z,95.67
2017-12-27T06:03:24.454Z,95.53
2017-12-27T06:05:52.072Z,96.33
2017-12-27T06:08:19.656Z,95.54
2017-12-27T06:10:47.998Z,95.34
2017-12-27T06:13:15.577Z,95.43
2017-12-27T06:15:43.177Z,95.03
2017-12-27T06:18:10.906Z,95.35
2017-12-27T06:20:40.454Z,95.63
2017-12-27T06:23:08.632Z,95.30
2017-12-27T06:25:36.199Z,95.89
2017-12-27T06:28:03.866Z,95.91
2017-12-27T06:30:31.457Z,95.41
2017-12-27T06:32:59.975Z,94.98
2017-12-27T06:35:27.536Z,94.95
2017-12-27T06:37:55.118Z,94.87
2017-12-27T06:40:22.680Z,94.94
2017-12-27T06:42:50.264Z,94.79
2017-12-27T06:45:17.838Z,94.54
2017-12-27T06:47:45.414Z,94.65
2017-12-27T06:50:12.991Z,94.86
2017-12-27T06:52:40.561Z,94.52
2017-12-27T06:55:08.136Z,95.29
2017-12-27T06:57:36.437Z,95.38
2017-12-27T07:00:04.911Z,95.21
2017-12-27T07:02:34.256Z,95.69
2017-12-27T07:05:02.632Z,95.60
2017-12-27T07:07:31.156Z,95.64
2017-12-27T07:09:58.751Z,95.59
2017-12-27T07:12:26.336Z,95.19
2017-12-27T07:14:53.918Z,95.82
2017-12-27T07:17:21.487Z,95.97
2017-12-27T07:19:49.075Z,96.32
2017-12-27T07:22:16.654Z,96.08
2017-12-27T07:24:44.235Z,96.09
2017-12-27T07:27:11.828Z,96.57
2017-12-27T07:29:39.408Z,96.74
2017-12-27T07:32:06.983Z,96.85
2017-12-27T07:34:35.374Z,97.04
2017-12-27T07:37:02.942Z,97.06
2017-12-27T07:39:31.422Z,96.81
2017-12-27T07:41:59.706Z,96.80
2017-12-27T07:44:27.282Z,97.04
2017-12-27T07:46:55.642Z,97.10
2017-12-27T07:49:24.172Z,96.93
2017-12-27T07:51:52.461Z,96.84
2017-12-27T07:54:20.051Z,96.64
2017-12-27T07:56:48.490Z,96.48
2017-12-27T07:59:16.857Z,96.09
2017-12-27T08:01:44.462Z,96.48
2017-12-27T08:04:12.042Z,96.50
2017-12-27T08:06:40.606Z,96.50
2017-12-27T08:09:08.885Z,96.24
2017-12-27T08:11:36.455Z,96.30
2017-12-27T08:14:04.817Z,95.76
2017-12-27T08:16:32.386Z,95.75
2017-12-27T08:18:59.955Z,95.63
2017-12-27T08:21:27.529Z,95.53
2017-12-27T08:23:55.940Z,95.57
2017-12-27T08:26:23.520Z,95.60
2017-12-27T08:28:51.103Z,95.91
2017-12-27T08:33:52.046Z,95.42
2017-12-27T08:36:19.667Z,94.99
2017-12-27T08:38:47.241Z,94.78
2017-12-27T08:41:14.809Z,94.62
2017-12-27T08:43:42.394Z,94.59
2017-12-27T08:46:09.966Z,94.11
2017-12-27T08:48:37.537Z,93.80
2017-12-27T08:51:05.106Z,93.61
2017-12-27T08:53:32.680Z,92.94
2017-12-27T08:56:00.251Z,92.61
2017-12-27T08:58:27.823Z,91.71
2017-12-27T09:00:55.398Z,91.53
2017-12-27T09:03:22.974Z,90.90
2017-12-27T09:05:50.549Z,91.09
2017-12-27T09:08:18.155Z,90.55
2017-12-27T09:10:45.726Z,90.04
2017-12-27T09:13:13.343Z,89.36
2017-12-27T09:15:40.913Z,89.48
2017-12-27T09:18:08.481Z,89.41
2017-12-27T09:20:36.084Z,89.52
2017-12-27T09:23:03.704Z,89.39
2017-12-27T09:25:32.173Z,87.88
2017-12-27T09:27:59.750Z,88.14
2017-12-27T09:30:27.319Z,87.33
2017-12-27T09:32:55.610Z,87.46
2017-12-27T09:35:23.182Z,87.83
2017-12-27T09:37:50.751Z,88.41
2017-12-27T09:40:18.327Z,88.35
2017-12-27T09:42:45.910Z,88.57
2017-12-27T09:45:13.488Z,87.88
2017-12-27T09:47:41.061Z,89.43
2017-12-27T09:50:08.633Z,88.86
2017-12-27T09:52:36.207Z,88.09
2017-12-27T09:55:03.783Z,87.74
2017-12-27T09:57:32.188Z,85.76
2017-12-27T09:59:59.755Z,86.53
2017-12-27T10:02:27.325Z,85.37
2017-12-27T10:04:54.894Z,84.82
2017-12-27T10:07:22.460Z,84.13
2017-12-27T10:09:50.031Z,83.84
2017-12-27T10:12:17.610Z,83.53
2017-12-27T10:14:45.967Z,83.82
2017-12-27T10:17:14.381Z,83.28
2017-12-27T10:19:41.956Z,83.17
2017-12-27T10:22:09.522Z,83.19
2017-12-27T10:24:37.102Z,83.10
2017-12-27T10:27:04.739Z,82.34
2017-12-27T10:29:33.113Z,80.74
2017-12-27T10:32:01.471Z,81.13
2017-12-27T10:34:29.045Z,80.99
2017-12-27T10:36:57.306Z,79.69
2017-12-27T10:39:24.891Z,78.89
2017-12-27T10:41:52.503Z,81.23
2017-12-27T10:44:20.147Z,78.42
2017-12-27T10:46:47.713Z,79.14
2017-12-27T10:49:16.207Z,77.78
2017-12-27T10:51:43.770Z,78.78
2017-12-27T10:54:11.333Z,77.65
2017-12-27T10:56:38.903Z,75.54
2017-12-27T10:59:06.479Z,77.95
2017-12-27T11:01:34.052Z,78.19
2017-12-27T11:04:02.428Z,77.24
2017-12-27T11:06:30.045Z,76.81
2017-12-27T11:08:57.660Z,76.29
2017-12-27T11:11:26.142Z,74.75
2017-12-27T11:13:53.708Z,73.75
2017-12-27T11:16:21.278Z,75.87
2017-12-27T11:18:48.847Z,74.33
2017-12-27T11:21:17.322Z,75.89
2017-12-27T11:23:46.397Z,75.43
2017-12-27T11:26:14.883Z,74.42
2017-12-27T11:28:43.370Z,76.00
2017-12-27T11:31:10.937Z,76.00
2017-12-27T11:33:38.504Z,75.97
2017-12-27T11:36:06.081Z,75.90
2017-12-27T11:38:33.659Z,75.68
2017-12-27T11:41:02.242Z,75.18
2017-12-27T11:43:29.845Z,75.06
2017-12-27T11:45:57.498Z,74.12
2017-12-27T11:48:25.071Z,74.69
2017-12-27T11:50:53.475Z,74.06
2017-12-27T11:53:21.043Z,74.46
2017-12-27T11:55:48.623Z,75.68
2017-12-27T11:58:16.191Z,74.66
2017-12-27T12:00:44.568Z,74.21
2017-12-27T12:03:12.135Z,74.05
2017-12-27T12:05:39.708Z,75.21
2017-12-27T12:08:08.172Z,74.18
2017-12-27T12:10:35.735Z,74.56
2017-12-27T12:13:03.299Z,74.18
2017-12-27T12:15:30.871Z,75.64
2017-12-27T12:17:58.575Z,73.60
2017-12-27T12:20:26.219Z,73.28
2017-12-27T12:22:53.790Z,74.60
2017-12-27T12:25:22.145Z,74.98
2017-12-27T12:27:49.717Z,74.99
2017-12-27T12:30:17.295Z,74.38
2017-12-27T12:32:44.863Z,73.92
2017-12-27T12:35:12.440Z,75.28
2017-12-27T12:37:40.003Z,73.92
2017-12-27T12:40:07.580Z,74.43
2017-12-27T12:42:35.973Z,75.32
2017-12-27T12:45:03.542Z,76.22
2017-12-27T12:47:31.230Z,74.83
2017-12-27T12:49:58.807Z,76.95
2017-12-27T12:52:26.374Z,77.02
2017-12-27T12:54:53.949Z,76.39
2017-12-27T12:57:21.525Z,75.83
2017-12-27T12:59:50.179Z,76.14
2017-12-27T13:02:17.783Z,75.92
2017-12-27T13:04:45.390Z,76.15
2017-12-27T13:07:13.970Z,75.77
2017-12-27T13:09:41.538Z,77.10
2017-12-27T13:12:09.191Z,76.82
2017-12-27T13:14:36.768Z,76.57
2017-12-27T13:17:04.343Z,77.05
2017-12-27T13:19:31.911Z,77.01
2017-12-27T13:21:59.491Z,76.71
2017-12-27T13:24:27.122Z,76.78
2017-12-27T13:26:54.692Z,76.35
2017-12-27T13:29:22.268Z,76.59
2017-12-27T13:31:49.839Z,76.63
2017-12-27T13:34:18.532Z,77.34
2017-12-27T13:36:46.108Z,76.93
2017-12-27T13:39:13.678Z,76.66
2017-12-27T13:41:41.258Z,77.15
2017-12-27T13:44:08.843Z,77.57
2017-12-27T13:46:36.418Z,77.14
2017-12-27T13:49:05.213Z,76.77
2017-12-27T13:51:35.439Z,78.08
2017-12-27T13:54:03.042Z,78.83
2017-12-27T13:56:30.626Z,78.67
2017-12-27T13:58:58.203Z,78.58
2017-12-27T14:01:26.546Z,79.49
2017-12-27T14:03:54.916Z,79.09
2017-12-27T14:06:22.524Z,79.35
2017-12-27T14:08:50.110Z,79.02
2017-12-27T14:11:17.726Z,78.67
2017-12-27T14:13:45.300Z,79.64
2017-12-27T14:16:12.880Z,81.30
2017-12-27T14:18:40.451Z,79.27
2017-12-27T14:21:08.057Z,79.44
2017-12-27T14:23:36.368Z,79.83
2017-12-27T14:26:04.714Z,79.43
2017-12-27T14:28:32.290Z,80.27
2017-12-27T14:30:59.864Z,80.67
2017-12-27T14:33:27.436Z,81.70
2017-12-27T14:35:55.016Z,81.82
2017-12-27T14:38:22.594Z,82.02
2017-12-27T14:40:51.107Z,83.10
2017-12-27T14:43:19.472Z,81.71
2017-12-27T14:45:47.892Z,82.38
2017-12-27T14:48:16.292Z,82.34
2017-12-27T14:50:44.776Z,82.02
2017-12-27T14:53:12.356Z,82.12
2017-12-27T14:55:39.926Z,82.48
2017-12-27T14:58:08.219Z,83.16
2017-12-27T15:00:35.805Z,83.16
2017-12-27T15:03:05.122Z,82.37
2017-12-27T15:05:32.701Z,83.00
2017-12-27T15:08:01.192Z,82.74
2017-12-27T15:10:29.565Z,83.00
2017-12-27T15:12:58.061Z,83.91
2017-12-27T15:15:26.444Z,83.49
2017-12-27T15:17:54.765Z,82.75
2017-12-27T15:20:23.109Z,83.27
2017-12-27T15:22:51.412Z,83.33
2017-12-27T15:25:18.997Z,83.11
2017-12-27T15:27:47.315Z,83.20
2017-12-27T15:30:15.812Z,83.76
2017-12-27T15:32:44.156Z,83.43
2017-12-27T15:35:11.792Z,83.95
2017-12-27T15:37:40.166Z,83.50
2017-12-27T15:40:08.516Z,82.67
2017-12-27T15:42:36.132Z,82.96
2017-12-27T15:45:03.705Z,82.62
2017-12-27T15:47:32.215Z,83.80
2017-12-27T15:49:59.791Z,83.32
2017-12-27T15:52:28.198Z,84.37
2017-12-27T15:54:56.695Z,84.12
2017-12-27T15:57:24.568Z,83.72
2017-12-27T15:59:53.063Z,83.60
2017-12-27T16:02:21.442Z,83.55
2017-12-27T16:04:49.862Z,83.78
2017-12-27T16:07:18.411Z,84.41
2017-12-27T16:09:46.754Z,84.78
2017-12-27T16:12:14.334Z,84.75
2017-12-27T16:14:42.806Z,85.71
2017-12-27T16:17:10.384Z,85.86
2017-12-27T16:19:37.990Z,85.90
2017-12-27T16:22:06.500Z,84.99
2017-12-27T16:24:34.771Z,85.24
2017-12-27T16:27:02.369Z,85.14
2017-12-27T16:29:29.942Z,85.52
2017-12-27T16:31:57.555Z,87.13
2017-12-27T16:34:25.131Z,86.31
2017-12-27T16:36:53.433Z,85.84
2017-12-27T16:39:21.895Z,86.46
2017-12-27T16:41:50.310Z,86.51
2017-12-27T16:44:17.875Z,87.37
2017-12-27T16:46:46.362Z,87.02
2017-12-27T16:49:14.712Z,88.12
2017-12-27T16:51:42.291Z,87.71
2017-12-27T16:54:10.766Z,87.94
2017-12-27T16:56:38.335Z,88.73
2017-12-27T16:59:05.908Z,88.62
2017-12-27T17:01:34.274Z,89.15
2017-12-27T17:04:02.793Z,89.17
2017-12-27T17:06:31.082Z,88.89
2017-12-27T17:08:59.570Z,89.06
2017-12-27T17:11:27.880Z,88.13
2017-12-27T17:13:55.454Z,88.91
2017-12-27T17:16:23.994Z,89.27
2017-12-27T17:18:51.572Z,89.08
2017-12-27T17:21:19.191Z,89.07
2017-12-27T17:23:47.546Z,89.56
2017-12-27T17:26:16.033Z,90.08
2017-12-27T17:28:43.616Z,90.29
2017-12-27T17:31:11.187Z,90.09
2017-12-27T17:33:39.726Z,89.70
2017-12-27T17:36:08.092Z,89.94
2017-12-27T17:38:36.567Z,90.16
2017-12-27T17:41:04.145Z,89.34
2017-12-27T17:43:32.693Z,89.28
2017-12-27T17:46:00.256Z,90.10
2017-12-27T17:48:28.728Z,90.46
2017-12-27T17:50:57.098Z,90.21
2017-12-27T17:53:25.485Z,90.87
2017-12-27T17:55:53.095Z,90.65
2017-12-27T17:58:20.684Z,90.63
2017-12-27T18:00:49.190Z,90.70
2017-12-27T18:03:17.558Z,90.70
2017-12-27T18:05:46.166Z,90.31
2017-12-27T18:08:13.738Z,90.36
2017-12-27T18:10:41.345Z,90.15
2017-12-27T18:13:08.917Z,89.92
2017-12-27T18:15:36.540Z,90.28
2017-12-27T18:18:04.119Z,89.89
2017-12-27T18:20:31.710Z,90.23
2017-12-27T18:22:59.287Z,90.14
2017-12-27T18:25:26.863Z,89.70
2017-12-27T18:27:54.439Z,88.94
2017-12-27T18:30:22.015Z,88.55
2017-12-27T18:32:49.594Z,89.81
2017-12-27T18:35:17.165Z,89.40
2017-12-27T18:37:45.342Z,89.52
2017-12-27T18:40:12.918Z,89.53
2017-12-27T18:42:40.531Z,90.37
2017-12-27T18:45:08.112Z,90.09
2017-12-27T18:47:35.690Z,90.13
2017-12-27T18:50:03.337Z,90.17
2017-12-27T18:52:30.911Z,90.31
2017-12-27T18:54:58.514Z,90.20
2017-12-27T18:57:26.082Z,91.01
2017-12-27T18:59:53.693Z,90.52
2017-12-27T19:02:21.279Z,90.92
2017-12-27T19:04:48.894Z,90.70
2017-12-27T19:07:16.474Z,90.49
2017-12-27T19:09:44.086Z,90.59
2017-12-27T19:12:11.660Z,90.79
2017-12-27T19:14:39.274Z,90.46
2017-12-27T19:17:06.858Z,89.75
2017-12-27T19:19:34.438Z,90.36
2017-12-27T19:22:02.026Z,89.54
2017-12-27T19:24:29.598Z,89.95
2017-12-27T19:26:57.171Z,90.35
2017-12-27T19:29:24.777Z,89.99
2017-12-27T19:31:52.453Z,90.29
2017-12-27T19:34:20.121Z,89.93
2017-12-27T19:36:47.800Z,89.79
2017-12-27T19:39:15.417Z,89.86
2017-12-27T19:41:43.457Z,90.61
2017-12-27T19:44:11.317Z,90.67
2017-12-27T19:46:38.954Z,91.02
2017-12-27T19:49:07.110Z,90.73
2017-12-27T19:51:34.803Z,90.13
2017-12-27T19:54:02.382Z,90.73
2017-12-27T19:56:29.950Z,90.80
2017-12-27T19:58:57.525Z,90.12
2017-12-27T20:01:25.139Z,90.98
2017-12-27T20:03:53.563Z,91.60
2017-12-27T20:06:21.150Z,91.50
2017-12-27T20:08:48.722Z,91.63
2017-12-27T20:11:16.295Z,91.70
2017-12-27T20:13:43.866Z,91.52
2017-12-27T20:16:12.235Z,91.13
2017-12-27T20:18:40.754Z,91.56
2017-12-27T20:21:09.172Z,92.06
2017-12-27T20:23:37.130Z,92.32
2017-12-27T20:26:04.712Z,92.67
2017-12-27T20:28:32.288Z,92.28
2017-12-27T20:30:59.859Z,92.55
2017-12-27T20:33:27.430Z,92.11
2017-12-27T20:35:54.998Z,92.80
2017-12-27T20:38:23.523Z,92.17
2017-12-27T20:40:51.098Z,92.62
2017-12-27T20:43:18.690Z,92.18
2017-12-27T20:45:46.263Z,92.55
2017-12-27T20:48:14.830Z,92.10
2017-12-27T20:50:42.407Z,92.52
2017-12-27T20:53:10.763Z,92.34
2017-12-27T20:55:38.379Z,92.91
2017-12-27T20:58:05.959Z,93.37
2017-12-27T21:00:33.567Z,93.84
2017-12-27T21:03:01.999Z,93.65
2017-12-27T21:05:30.352Z,94.12
2017-12-27T21:07:57.928Z,93.76
2017-12-27T21:10:25.508Z,93.95
2017-12-27T21:12:53.131Z,94.14
2017-12-27T21:15:21.580Z,94.25
2017-12-27T21:17:49.939Z,94.13
2017-12-27T21:20:17.511Z,94.34
2017-12-27T21:22:45.086Z,94.78
2017-12-27T21:25:12.658Z,94.36
2017-12-27T21:27:40.275Z,94.74
2017-12-27T21:30:07.848Z,95.01
2017-12-27T21:32:36.362Z,94.62
2017-12-27T21:35:03.931Z,94.44
2017-12-27T21:37:31.519Z,95.20
2017-12-27T21:39:59.089Z,95.36
2017-12-27T21:42:26.671Z,95.40
2017-12-27T21:44:54.289Z,95.44
2017-12-27T21:50:26.954Z,95.64
2017-12-27T21:52:54.546Z,95.90
2017-12-27T21:55:23.203Z,95.44
2017-12-27T21:57:50.869Z,95.70
2017-12-27T22:00:24.117Z,95.69
2017-12-27T22:02:51.722Z,95.70
2017-12-27T22:05:19.302Z,95.38
2017-12-27T22:07:46.912Z,95.07
2017-12-27T22:10:15.430Z,94.68
2017-12-27T22:12:43.055Z,94.57
2017-12-27T22:15:10.632Z,95.26
2017-12-27T22:17:38.210Z,95.23
2017-12-27T22:23:06.802Z,95.62
2017-12-27T22:25:34.374Z,95.89
2017-12-27T22:28:01.943Z,95.45
2017-12-27T22:30:29.514Z,94.94
2017-12-27T22:32:58.131Z,95.01
2017-12-27T22:35:25.710Z,94.83
2017-12-27T22:37:53.283Z,95.01
2017-12-27T22:40:20.883Z,94.90
2017-12-27T22:42:48.445Z,94.71
2017-12-27T22:45:16.019Z,93.80
2017-12-27T22:47:43.615Z,94.28
2017-12-27T22:50:11.227Z,94.57
2017-12-27T22:52:38.805Z,94.39
2017-12-27T22:55:06.378Z,94.36
2017-12-27T22:57:34.656Z,94.95
2017-12-27T23:00:03.138Z,94.70
2017-12-27T23:02:30.719Z,94.37
2017-12-27T23:04:58.294Z,94.53
2017-12-27T23:07:25.868Z,94.86
2017-12-27T23:09:53.450Z,94.67
2017-12-27T23:12:21.021Z,95.08
2017-12-27T23:14:48.622Z,95.50
2017-12-27T23:17:16.195Z,95.60
2017-12-27T23:19:44.506Z,95.47
2017-12-27T23:22:12.997Z,95.66
2017-12-27T23:24:41.382Z,95.33
2017-12-27T23:27:09.733Z,95.73
2017-12-27T23:29:38.122Z,95.37
2017-12-27T23:32:06.495Z,95.86
2017-12-27T23:34:34.079Z,96.32
2017-12-27T23:37:01.655Z,96.07
2017-12-27T23:39:29.266Z,96.07
2017-12-27T23:41:57.662Z,96.08
2017-12-27T23:44:25.226Z,95.70
2017-12-27T23:46:52.902Z,95.36
2017-12-27T23:49:20.506Z,95.48
2017-12-27T23:51:48.130Z,95.34
2017-12-27T23:54:15.741Z,95.58
2017-12-27T23:56:43.419Z,95.34
2017-12-27T23:59:11.985Z,95.36
